createdAt,value
2018-05-12T00:00:26.631Z,14.70
2018-05-12T00:01:29.131Z,14.70
2018-05-12T00:02:31.638Z,14.70
2018-05-12T00:03:34.159Z,14.70
2018-05-12T00:04:37.445Z,14.70
2018-05-12T00:05:40.714Z,14.70
2018-05-12T00:06:43.232Z,14.70
2018-05-12T00:07:45.728Z,14.70
2018-05-12T00:08:48.249Z,14.70
2018-05-12T00:09:51.534Z,14.80
2018-05-12T00:10:54.813Z,14.80
2018-05-12T00:11:58.102Z,14.80
2018-05-12T00:13:01.375Z,14.80
2018-05-12T00:14:04.669Z,14.80
2018-05-12T00:15:07.187Z,14.70
2018-05-12T00:16:09.685Z,14.70
2018-05-12T00:17:12.189Z,14.70
2018-05-12T00:18:15.455Z,14.70
2018-05-12T00:19:17.962Z,14.70
2018-05-12T00:20:20.483Z,14.70
2018-05-12T00:21:22.996Z,14.70
2018-05-12T00:22:26.272Z,14.70
2018-05-12T00:23:29.529Z,14.70
2018-05-12T00:24:32.044Z,14.70
2018-05-12T00:25:35.322Z,14.70
2018-05-12T00:26:38.575Z,14.60
2018-05-12T00:27:41.069Z,14.70
2018-05-12T00:28:43.576Z,14.60
2018-05-12T00:29:46.092Z,14.70
2018-05-12T00:30:48.607Z,14.60
2018-05-12T00:31:51.125Z,14.60
2018-05-12T00:32:53.645Z,14.60
2018-05-12T00:33:56.146Z,14.60
2018-05-12T00:34:58.653Z,14.60
2018-05-12T00:36:01.169Z,14.60
2018-05-12T00:37:03.678Z,14.60
2018-05-12T00:38:06.184Z,14.60
2018-05-12T00:39:09.466Z,14.60
2018-05-12T00:40:11.953Z,14.50
2018-05-12T00:41:15.257Z,14.60
2018-05-12T00:42:17.762Z,14.60
2018-05-12T00:43:20.267Z,14.60
2018-05-12T00:44:22.777Z,14.60
2018-05-12T00:45:25.289Z,14.60
2018-05-12T00:46:27.803Z,14.50
2018-05-12T00:47:30.308Z,14.50
2018-05-12T00:48:32.802Z,14.60
2018-05-12T00:49:35.299Z,14.50
2018-05-12T00:50:38.590Z,14.50
2018-05-12T00:51:41.104Z,14.50
2018-05-12T00:52:43.629Z,14.50
2018-05-12T00:53:46.907Z,14.50
2018-05-12T00:54:50.162Z,14.50
2018-05-12T00:55:52.670Z,14.40
2018-05-12T00:56:55.936Z,14.40
2018-05-12T00:57:58.441Z,14.40
2018-05-12T00:59:00.967Z,14.40
2018-05-12T01:00:03.470Z,14.40
2018-05-12T01:01:06.777Z,14.40
2018-05-12T01:02:09.302Z,14.40
2018-05-12T01:03:11.797Z,14.40
2018-05-12T01:04:15.059Z,14.40
2018-05-12T01:05:17.593Z,14.40
2018-05-12T01:06:20.103Z,14.40
2018-05-12T01:07:22.629Z,14.40
2018-05-12T01:08:25.126Z,14.40
2018-05-12T01:09:27.659Z,14.30
2018-05-12T01:10:30.168Z,14.40
2018-05-12T01:11:32.703Z,14.30
2018-05-12T01:12:35.211Z,14.30
2018-05-12T01:13:37.775Z,14.30
2018-05-12T01:14:40.248Z,14.30
2018-05-12T01:15:42.749Z,14.30
2018-05-12T01:16:45.268Z,14.30
2018-05-12T01:17:47.777Z,14.40
2018-05-12T01:18:50.283Z,14.30
2018-05-12T01:19:53.543Z,14.40
2018-05-12T01:20:56.032Z,14.40
2018-05-12T01:21:59.304Z,14.40
2018-05-12T01:23:01.831Z,14.40
2018-05-12T01:24:04.336Z,14.40
2018-05-12T01:25:07.612Z,14.40
2018-05-12T01:26:10.140Z,14.40
2018-05-12T01:27:12.636Z,14.40
2018-05-12T01:28:15.144Z,14.40
2018-05-12T01:29:17.641Z,14.40
2018-05-12T01:30:20.170Z,14.40
2018-05-12T01:31:22.676Z,14.40
2018-05-12T01:32:25.953Z,14.40
2018-05-12T01:33:28.493Z,14.40
2018-05-12T01:34:31.009Z,14.50
2018-05-12T01:35:34.305Z,14.50
2018-05-12T01:36:37.563Z,14.50
2018-05-12T01:37:40.052Z,14.50
2018-05-12T01:38:43.334Z,14.40
2018-05-12T01:39:46.617Z,14.40
2018-05-12T01:40:49.116Z,14.50
2018-05-12T01:41:51.612Z,14.40
2018-05-12T01:42:54.102Z,14.50
2018-05-12T01:43:56.615Z,14.50
2018-05-12T01:44:59.876Z,14.40
2018-05-12T01:46:03.157Z,14.40
2018-05-12T01:47:05.667Z,14.40
2018-05-12T01:48:08.210Z,14.40
2018-05-12T01:49:10.728Z,14.30
2018-05-12T01:50:13.355Z,14.30
2018-05-12T01:51:15.843Z,14.30
2018-05-12T01:52:19.092Z,14.30
2018-05-12T01:53:21.611Z,14.30
2018-05-12T01:54:24.102Z,14.30
2018-05-12T01:55:26.611Z,14.30
2018-05-12T01:56:29.114Z,14.30
2018-05-12T01:57:32.380Z,14.30
2018-05-12T01:58:34.881Z,14.30
2018-05-12T01:59:37.393Z,14.30
2018-05-12T02:00:39.905Z,14.30
2018-05-12T02:01:43.158Z,14.30
2018-05-12T02:02:45.662Z,14.30
2018-05-12T02:03:48.946Z,14.20
2018-05-12T02:04:51.509Z,14.20
2018-05-12T02:05:54.015Z,14.20
2018-05-12T02:06:56.517Z,14.20
2018-05-12T02:07:59.012Z,14.20
2018-05-12T02:09:01.505Z,14.20
2018-05-12T02:10:04.808Z,14.10
2018-05-12T02:11:08.079Z,14.20
2018-05-12T02:12:11.390Z,14.20
2018-05-12T02:13:13.907Z,14.20
2018-05-12T02:14:16.440Z,14.10
2018-05-12T02:15:18.964Z,14.10
2018-05-12T02:16:21.474Z,14.10
2018-05-12T02:17:23.973Z,14.10
2018-05-12T02:18:26.459Z,14.10
2018-05-12T02:19:28.973Z,14.10
2018-05-12T02:20:32.260Z,14.00
2018-05-12T02:21:35.530Z,14.00
2018-05-12T02:22:38.021Z,14.00
2018-05-12T02:23:41.292Z,14.00
2018-05-12T02:24:43.800Z,14.00
2018-05-12T02:25:46.326Z,14.00
2018-05-12T02:26:48.842Z,14.00
2018-05-12T02:27:51.334Z,14.00
2018-05-12T02:28:53.818Z,14.00
2018-05-12T02:29:56.302Z,14.00
2018-05-12T02:30:58.828Z,14.00
2018-05-12T02:32:01.317Z,14.00
2018-05-12T02:33:03.833Z,14.00
2018-05-12T02:34:07.088Z,14.00
2018-05-12T02:35:09.622Z,13.90
2018-05-12T02:36:12.119Z,13.90
2018-05-12T02:37:14.632Z,13.90
2018-05-12T02:38:17.902Z,13.90
2018-05-12T02:39:20.394Z,13.90
2018-05-12T02:40:23.674Z,13.90
2018-05-12T02:41:26.949Z,13.90
2018-05-12T02:42:29.457Z,13.80
2018-05-12T02:43:31.977Z,13.80
2018-05-12T02:44:34.484Z,13.90
2018-05-12T02:45:37.781Z,13.80
2018-05-12T02:46:40.338Z,13.80
2018-05-12T02:47:43.828Z,13.70
2018-05-12T02:48:47.106Z,13.70
2018-05-12T02:49:50.390Z,13.70
2018-05-12T02:50:52.923Z,13.70
2018-05-12T02:51:55.421Z,13.70
2018-05-12T02:52:57.926Z,13.70
2018-05-12T02:54:01.206Z,13.60
2018-05-12T02:55:04.482Z,13.60
2018-05-12T02:56:07.772Z,13.50
2018-05-12T02:57:10.297Z,13.50
2018-05-12T02:58:12.816Z,13.60
2018-05-12T02:59:16.102Z,13.50
2018-05-12T03:00:18.605Z,13.50
2018-05-12T03:01:21.122Z,13.60
2018-05-12T03:02:23.626Z,13.50
2018-05-12T03:03:26.906Z,13.50
2018-05-12T03:04:29.422Z,13.50
2018-05-12T03:05:31.917Z,13.50
2018-05-12T03:06:34.427Z,13.50
2018-05-12T03:07:37.693Z,13.40
2018-05-12T03:08:40.220Z,13.40
2018-05-12T03:09:42.711Z,13.30
2018-05-12T03:10:45.220Z,13.30
2018-05-12T03:11:48.500Z,13.20
2018-05-12T03:12:51.795Z,13.10
2018-05-12T03:13:55.062Z,13.10
2018-05-12T03:14:57.550Z,13.10
2018-05-12T03:16:00.827Z,13.00
2018-05-12T03:17:03.332Z,13.00
2018-05-12T03:18:05.835Z,13.00
2018-05-12T03:19:08.337Z,12.90
2018-05-12T03:20:10.872Z,12.90
2018-05-12T03:21:13.356Z,12.80
2018-05-12T03:22:15.846Z,12.70
2018-05-12T03:23:18.357Z,12.70
2018-05-12T03:24:20.850Z,12.60
2018-05-12T03:25:23.370Z,12.50
2018-05-12T03:26:25.970Z,12.50
2018-05-12T03:27:28.479Z,12.50
2018-05-12T03:28:30.985Z,12.40
2018-05-12T03:29:33.502Z,12.30
2018-05-12T03:30:35.999Z,12.30
2018-05-12T03:31:38.531Z,12.30
2018-05-12T03:32:41.014Z,12.30
2018-05-12T03:33:43.516Z,12.20
2018-05-12T03:34:46.036Z,12.20
2018-05-12T03:35:48.541Z,12.20
2018-05-12T03:36:51.034Z,12.10
2018-05-12T03:37:53.523Z,12.10
2018-05-12T03:38:56.830Z,12.00
2018-05-12T03:39:59.322Z,12.00
2018-05-12T03:41:01.817Z,12.00
2018-05-12T03:42:04.311Z,12.00
2018-05-12T03:43:06.819Z,12.00
2018-05-12T03:44:09.340Z,12.00
2018-05-12T03:45:11.895Z,11.90
2018-05-12T03:46:14.399Z,11.90
2018-05-12T03:47:16.922Z,11.90
2018-05-12T03:48:19.432Z,11.90
2018-05-12T03:49:21.942Z,11.80
2018-05-12T03:50:24.462Z,11.80
2018-05-12T03:51:26.945Z,11.70
2018-05-12T03:52:29.445Z,11.70
2018-05-12T03:53:31.937Z,11.60
2018-05-12T03:54:34.458Z,11.60
2018-05-12T03:55:37.729Z,11.60
2018-05-12T03:56:40.227Z,11.60
2018-05-12T03:57:43.496Z,11.60
2018-05-12T03:58:46.003Z,11.50
2018-05-12T03:59:48.517Z,11.50
2018-05-12T04:00:51.024Z,11.50
2018-05-12T04:01:54.299Z,11.50
2018-05-12T04:02:56.813Z,11.50
2018-05-12T04:03:59.319Z,11.50
2018-05-12T04:05:13.721Z,11.50
2018-05-12T04:06:28.078Z,11.50
2018-05-12T04:07:42.546Z,11.50
2018-05-12T04:08:56.979Z,11.40
2018-05-12T04:10:11.484Z,11.40
2018-05-12T04:12:51.545Z,11.50
2018-05-12T04:13:54.045Z,11.50
2018-05-12T04:14:57.310Z,11.50
2018-05-12T04:15:59.834Z,11.50
2018-05-12T04:17:02.324Z,11.60
2018-05-12T04:18:06.616Z,11.60
2018-05-12T04:19:09.129Z,11.60
2018-05-12T04:20:11.676Z,11.70
2018-05-12T04:21:14.193Z,11.70
2018-05-12T04:22:17.472Z,11.90
2018-05-12T04:23:19.993Z,11.90
2018-05-12T04:24:22.516Z,12.10
2018-05-12T04:25:25.809Z,12.60
2018-05-12T04:26:29.066Z,12.90
2018-05-12T04:27:31.579Z,12.80
2018-05-12T04:28:34.860Z,13.40
2018-05-12T04:29:38.148Z,13.70
2018-05-12T04:30:41.443Z,14.00
2018-05-12T04:31:43.949Z,14.00
2018-05-12T04:32:46.464Z,14.30
2018-05-12T04:33:48.962Z,14.50
2018-05-12T04:34:51.491Z,14.70
2018-05-12T04:35:54.012Z,15.00
2018-05-12T04:36:56.524Z,15.20
2018-05-12T04:37:59.026Z,15.40
2018-05-12T04:39:02.310Z,15.70
2018-05-12T04:40:05.579Z,15.90
2018-05-12T04:41:08.081Z,15.90
2018-05-12T04:42:11.378Z,16.20
2018-05-12T04:43:13.904Z,16.20
2018-05-12T04:44:16.424Z,16.40
2018-05-12T04:45:18.935Z,16.40
2018-05-12T04:46:21.430Z,16.60
2018-05-12T04:47:23.969Z,16.70
2018-05-12T04:48:26.479Z,17.00
2018-05-12T04:49:29.797Z,17.30
2018-05-12T04:50:32.315Z,17.30
2018-05-12T04:51:34.815Z,17.60
2018-05-12T04:52:38.084Z,17.80
2018-05-12T04:53:40.579Z,17.80
2018-05-12T04:54:43.880Z,18.20
2018-05-12T04:55:46.398Z,18.10
2018-05-12T04:56:48.899Z,18.30
2018-05-12T04:57:52.210Z,18.60
2018-05-12T04:58:54.734Z,18.60
2018-05-12T04:59:57.231Z,18.70
2018-05-12T05:01:00.541Z,18.80
2018-05-12T05:02:03.056Z,18.80
2018-05-12T05:03:05.550Z,18.70
2018-05-12T05:04:08.068Z,18.70
2018-05-12T05:05:10.583Z,18.90
2018-05-12T05:06:13.085Z,18.70
2018-05-12T05:07:15.584Z,18.60
2018-05-12T05:08:18.115Z,19.00
2018-05-12T05:09:21.386Z,19.40
2018-05-12T05:10:24.666Z,19.40
2018-05-12T05:11:27.183Z,19.30
2018-05-12T05:12:29.700Z,19.70
2018-05-12T05:13:32.220Z,19.70
2018-05-12T05:14:34.733Z,19.80
2018-05-12T05:15:37.250Z,20.00
2018-05-12T05:16:40.516Z,20.40
2018-05-12T05:17:43.778Z,20.60
2018-05-12T05:18:46.330Z,20.60
2018-05-12T05:19:48.845Z,20.60
2018-05-12T05:20:51.361Z,20.60
2018-05-12T05:21:53.859Z,20.70
2018-05-12T05:22:56.357Z,21.10
2018-05-12T05:23:58.862Z,21.00
2018-05-12T05:25:01.369Z,20.60
2018-05-12T05:26:03.866Z,20.70
2018-05-12T05:27:06.367Z,21.10
2018-05-12T05:28:08.883Z,21.10
2018-05-12T05:29:11.454Z,21.30
2018-05-12T05:30:13.970Z,21.40
2018-05-12T05:31:17.242Z,21.40
2018-05-12T05:32:20.545Z,21.50
2018-05-12T05:33:23.809Z,22.00
2018-05-12T05:34:26.325Z,21.90
2018-05-12T05:35:28.837Z,22.00
2018-05-12T05:36:31.346Z,21.90
2018-05-12T05:37:34.608Z,22.60
2018-05-12T05:38:37.863Z,23.00
2018-05-12T05:39:40.388Z,22.90
2018-05-12T05:40:43.672Z,23.30
2018-05-12T05:41:46.974Z,23.20
2018-05-12T05:42:50.225Z,23.00
2018-05-12T05:43:52.721Z,23.00
2018-05-12T05:44:55.250Z,23.20
2018-05-12T05:45:57.752Z,23.40
2018-05-12T05:47:00.268Z,23.50
2018-05-12T05:48:02.778Z,23.50
2018-05-12T05:49:05.292Z,23.60
2018-05-12T05:50:07.817Z,23.50
2018-05-12T05:51:10.316Z,23.50
2018-05-12T05:52:13.578Z,23.90
2018-05-12T05:53:16.089Z,23.80
2018-05-12T05:54:18.584Z,23.90
2018-05-12T05:55:21.105Z,24.00
2018-05-12T05:56:23.592Z,24.10
2018-05-12T05:57:26.839Z,24.10
2018-05-12T05:58:29.348Z,24.10
2018-05-12T05:59:32.594Z,23.80
2018-05-12T06:00:35.123Z,23.70
2018-05-12T06:01:37.639Z,23.70
2018-05-12T06:02:40.137Z,23.80
2018-05-12T06:03:43.404Z,23.30
2018-05-12T06:04:45.900Z,23.30
2018-05-12T06:05:49.168Z,23.70
2018-05-12T06:06:53.206Z,23.60
2018-05-12T06:07:56.465Z,23.40
2018-05-12T06:08:58.967Z,23.50
2018-05-12T06:10:01.473Z,23.60
2018-05-12T06:11:03.991Z,23.90
2018-05-12T06:12:07.255Z,24.60
2018-05-12T06:13:09.749Z,24.60
2018-05-12T06:14:13.019Z,24.50
2018-05-12T06:15:15.638Z,24.50
2018-05-12T06:16:18.176Z,24.70
2018-05-12T06:17:21.489Z,24.80
2018-05-12T06:18:24.003Z,24.80
2018-05-12T06:19:26.531Z,25.10
2018-05-12T06:20:29.046Z,24.90
2018-05-12T06:21:31.557Z,25.20
2018-05-12T06:22:34.845Z,25.40
2018-05-12T06:23:38.112Z,25.40
2018-05-12T06:24:40.605Z,25.30
2018-05-12T06:25:43.900Z,26.00
2018-05-12T06:26:46.417Z,26.00
2018-05-12T06:27:48.994Z,26.50
2018-05-12T06:28:51.426Z,26.40
2018-05-12T06:29:53.949Z,26.50
2018-05-12T06:30:56.482Z,26.10
2018-05-12T06:31:58.977Z,25.80
2018-05-12T06:33:01.466Z,25.60
2018-05-12T06:34:03.963Z,25.70
2018-05-12T06:35:06.481Z,26.00
2018-05-12T06:36:08.987Z,26.10
2018-05-12T06:37:12.303Z,26.80
2018-05-12T06:38:14.791Z,26.70
2018-05-12T06:39:17.315Z,27.10
2018-05-12T06:40:20.592Z,27.60
2018-05-12T06:41:23.139Z,27.60
2018-05-12T06:42:25.625Z,27.60
2018-05-12T06:43:28.133Z,27.60
2018-05-12T06:44:31.421Z,27.60
2018-05-12T06:45:33.935Z,27.50
2018-05-12T06:46:36.445Z,27.90
2018-05-12T06:47:39.754Z,28.60
2018-05-12T06:48:42.253Z,28.60
2018-05-12T06:49:44.759Z,28.70
2018-05-12T06:50:47.393Z,28.50
2018-05-12T06:51:49.827Z,28.60
2018-05-12T06:52:53.137Z,28.60
2018-05-12T06:53:56.337Z,28.60
2018-05-12T06:54:58.853Z,28.60
2018-05-12T06:56:01.362Z,28.60
2018-05-12T06:57:03.866Z,28.90
2018-05-12T06:58:06.602Z,28.50
2018-05-12T06:59:09.145Z,28.30
2018-05-12T07:00:11.664Z,28.40
2018-05-12T07:01:14.178Z,28.70
2018-05-12T07:02:17.497Z,29.00
2018-05-12T07:03:21.330Z,28.80
2018-05-12T07:04:23.836Z,28.80
2018-05-12T07:05:26.364Z,29.20
2018-05-12T07:06:29.611Z,29.30
2018-05-12T07:07:32.881Z,29.40
2018-05-12T07:08:35.392Z,29.40
2018-05-12T07:09:37.920Z,29.10
2018-05-12T07:10:40.428Z,29.30
2018-05-12T07:11:42.924Z,29.50
2018-05-12T07:12:45.450Z,29.30
2018-05-12T07:13:48.724Z,29.10
2018-05-12T07:14:51.257Z,29.10
2018-05-12T07:15:54.513Z,29.10
2018-05-12T07:16:57.329Z,29.50
2018-05-12T07:17:59.832Z,29.50
2018-05-12T07:19:02.342Z,29.30
2018-05-12T07:20:04.853Z,29.30
2018-05-12T07:21:07.359Z,29.30
2018-05-12T07:22:10.639Z,28.90
2018-05-12T07:23:13.929Z,29.70
2018-05-12T07:24:16.449Z,29.70
2018-05-12T07:25:18.963Z,30.30
2018-05-12T07:26:23.017Z,30.60
2018-05-12T07:27:25.559Z,30.60
2018-05-12T07:28:28.820Z,31.10
2018-05-12T07:29:32.853Z,30.80
2018-05-12T07:30:36.119Z,31.10
2018-05-12T07:31:38.639Z,31.10
2018-05-12T07:32:41.135Z,31.30
2018-05-12T07:33:43.652Z,31.50
2018-05-12T07:34:46.913Z,31.30
2018-05-12T07:35:49.484Z,31.20
2018-05-12T07:36:51.988Z,31.60
2018-05-12T07:37:54.507Z,31.90
2018-05-12T07:38:57.134Z,32.10
2018-05-12T07:39:59.606Z,31.90
2018-05-12T07:41:02.108Z,31.80
2018-05-12T07:42:04.631Z,31.90
2018-05-12T07:43:07.960Z,32.50
2018-05-12T07:44:10.567Z,32.50
2018-05-12T07:45:13.901Z,32.50
2018-05-12T07:46:16.396Z,32.50
2018-05-12T07:47:18.908Z,32.80
2018-05-12T07:48:22.166Z,32.90
2018-05-12T07:49:24.665Z,32.90
2018-05-12T07:50:27.200Z,32.60
2018-05-12T07:51:29.749Z,33.00
2018-05-12T07:52:33.015Z,33.20
2018-05-12T07:53:36.313Z,33.40
2018-05-12T07:54:38.830Z,33.40
2018-05-12T07:55:41.365Z,32.70
2018-05-12T07:56:43.854Z,32.60
2018-05-12T07:57:46.570Z,32.50
2018-05-12T07:58:49.841Z,33.40
2018-05-12T07:59:52.349Z,33.40
2018-05-12T08:00:55.625Z,33.50
2018-05-12T08:01:58.136Z,33.40
2018-05-12T08:03:00.645Z,33.70
2018-05-12T08:04:03.149Z,33.20
2018-05-12T08:05:06.452Z,33.40
2018-05-12T08:06:08.974Z,33.40
2018-05-12T08:07:11.482Z,33.20
2018-05-12T08:08:14.749Z,32.10
2018-05-12T08:09:18.756Z,32.40
2018-05-12T08:10:21.297Z,32.40
2018-05-12T08:11:23.800Z,33.00
2018-05-12T08:12:26.324Z,33.20
2018-05-12T08:13:28.839Z,32.80
2018-05-12T08:14:32.117Z,33.20
2018-05-12T08:15:34.640Z,33.20
2018-05-12T08:16:37.165Z,32.80
2018-05-12T08:17:39.669Z,32.60
2018-05-12T08:18:42.200Z,32.70
2018-05-12T08:19:44.717Z,32.40
2018-05-12T08:20:47.224Z,32.40
2018-05-12T08:21:49.718Z,32.40
2018-05-12T08:22:53.005Z,32.70
2018-05-12T08:23:56.277Z,32.80
2018-05-12T08:24:58.779Z,32.80
2018-05-12T08:26:02.065Z,33.40
2018-05-12T08:27:04.614Z,33.40
2018-05-12T08:28:07.096Z,32.60
2018-05-12T08:29:09.624Z,32.50
2018-05-12T08:30:12.152Z,32.40
2018-05-12T08:31:15.458Z,32.10
2018-05-12T08:32:17.961Z,32.10
2018-05-12T08:33:20.487Z,32.00
2018-05-12T08:34:23.031Z,32.20
2018-05-12T08:35:25.559Z,32.20
2018-05-12T08:36:28.090Z,32.40
2018-05-12T08:37:31.365Z,32.30
2018-05-12T08:38:34.648Z,31.70
2018-05-12T08:39:37.144Z,31.70
2018-05-12T08:40:40.409Z,31.40
2018-05-12T08:41:42.925Z,31.30
2018-05-12T08:42:45.445Z,30.50
2018-05-12T08:43:47.931Z,30.30
2018-05-12T08:44:51.210Z,30.20
2018-05-12T08:45:54.487Z,30.00
2018-05-12T08:46:56.975Z,30.00
2018-05-12T08:47:59.483Z,30.00
2018-05-12T08:49:01.998Z,30.40
2018-05-12T08:50:04.496Z,30.50
2018-05-12T08:51:07.865Z,30.40
2018-05-12T08:52:10.369Z,30.40
2018-05-12T08:53:12.873Z,29.90
2018-05-12T08:54:15.388Z,30.10
2018-05-12T08:55:18.679Z,30.30
2018-05-12T08:56:21.981Z,30.10
2018-05-12T08:57:25.435Z,30.60
2018-05-12T08:58:28.059Z,30.60
2018-05-12T08:59:30.569Z,30.80
2018-05-12T09:00:33.096Z,30.70
2018-05-12T09:01:35.584Z,30.60
2018-05-12T09:02:38.096Z,30.10
2018-05-12T09:03:40.604Z,30.30
2018-05-12T09:04:44.060Z,30.30
2018-05-12T09:05:46.625Z,30.60
2018-05-12T09:06:49.105Z,30.70
2018-05-12T09:07:51.615Z,30.70
2018-05-12T09:08:54.154Z,30.60
2018-05-12T09:09:56.756Z,30.30
2018-05-12T09:10:59.258Z,30.00
2018-05-12T09:12:01.772Z,30.10
2018-05-12T09:13:05.053Z,29.50
2018-05-12T09:14:07.555Z,29.50
2018-05-12T09:15:10.069Z,28.80
2018-05-12T09:16:12.653Z,28.60
2018-05-12T09:17:15.155Z,28.80
2018-05-12T09:18:18.461Z,28.20
2018-05-12T09:19:21.010Z,28.20
2018-05-12T09:20:23.500Z,28.00
2018-05-12T09:21:26.035Z,27.80
2018-05-12T09:22:28.522Z,27.60
2018-05-12T09:23:31.816Z,27.20
2018-05-12T09:24:35.077Z,27.40
2018-05-12T09:25:37.590Z,27.40
2018-05-12T09:26:40.115Z,27.10
2018-05-12T09:27:42.624Z,27.30
2018-05-12T09:28:45.149Z,27.50
2018-05-12T09:29:47.665Z,27.80
2018-05-12T09:30:50.178Z,28.10
2018-05-12T09:31:52.692Z,28.30
2018-05-12T09:32:55.964Z,28.00
2018-05-12T09:33:59.992Z,27.70
2018-05-12T09:35:03.296Z,27.80
2018-05-12T09:36:05.798Z,27.80
2018-05-12T09:37:08.311Z,27.10
2018-05-12T09:38:11.638Z,26.60
2018-05-12T09:39:14.233Z,26.60
2018-05-12T09:40:16.738Z,26.50
2018-05-12T09:41:19.231Z,26.50
2018-05-12T09:42:21.951Z,26.60
2018-05-12T09:43:24.485Z,26.60
2018-05-12T09:44:26.997Z,26.70
2018-05-12T09:45:29.499Z,26.60
2018-05-12T09:46:32.759Z,26.70
2018-05-12T09:47:35.266Z,26.70
2018-05-12T09:48:38.535Z,27.00
2018-05-12T09:49:41.821Z,27.20
2018-05-12T09:50:45.912Z,27.30
2018-05-12T09:51:48.462Z,27.30
2018-05-12T09:52:50.981Z,27.10
2018-05-12T09:53:54.262Z,26.70
2018-05-12T09:54:56.778Z,26.70
2018-05-12T09:55:59.275Z,26.40
2018-05-12T09:57:01.808Z,26.00
2018-05-12T09:58:04.324Z,26.00
2018-05-12T09:59:06.865Z,25.80
2018-05-12T10:00:09.389Z,26.00
2018-05-12T10:01:11.893Z,26.10
2018-05-12T10:02:14.467Z,25.90
2018-05-12T10:03:16.972Z,25.70
2018-05-12T10:04:19.487Z,25.60
2018-05-12T10:05:22.774Z,25.80
2018-05-12T10:06:26.032Z,26.00
2018-05-12T10:07:28.516Z,25.90
2018-05-12T10:08:31.036Z,26.20
2018-05-12T10:09:33.589Z,26.30
2018-05-12T10:10:36.088Z,26.10
2018-05-12T10:11:38.631Z,26.10
2018-05-12T10:12:41.174Z,26.10
2018-05-12T10:13:43.675Z,26.10
2018-05-12T10:14:46.193Z,26.00
2018-05-12T10:15:48.743Z,25.80
2018-05-12T10:16:51.254Z,25.60
2018-05-12T10:17:54.531Z,25.60
2018-05-12T10:18:57.039Z,25.60
2018-05-12T10:20:00.303Z,25.50
2018-05-12T10:21:02.823Z,25.50
2018-05-12T10:22:05.343Z,25.30
2018-05-12T10:23:08.639Z,25.00
2018-05-12T10:24:12.055Z,24.80
2018-05-12T10:25:14.564Z,24.80
2018-05-12T10:26:17.179Z,24.60
2018-05-12T10:27:19.657Z,24.70
2018-05-12T10:28:22.172Z,24.80
2018-05-12T10:29:24.692Z,24.60
2018-05-12T10:30:27.981Z,24.40
2018-05-12T10:31:32.242Z,24.10
2018-05-12T10:32:34.745Z,24.10
2018-05-12T10:33:38.039Z,23.90
2018-05-12T10:34:41.324Z,23.80
2018-05-12T10:35:43.835Z,23.80
2018-05-12T10:36:46.508Z,23.70
2018-05-12T10:37:49.109Z,23.60
2018-05-12T10:38:51.693Z,23.50
2018-05-12T10:39:54.183Z,23.50
2018-05-12T10:40:57.457Z,23.70
2018-05-12T10:42:00.006Z,23.70
2018-05-12T10:43:02.540Z,23.80
2018-05-12T10:44:05.057Z,24.00
2018-05-12T10:45:07.599Z,23.90
2018-05-12T10:46:10.147Z,23.90
2018-05-12T10:47:12.696Z,24.20
2018-05-12T10:48:16.467Z,24.60
2018-05-12T10:49:19.981Z,24.60
2018-05-12T10:50:22.500Z,24.50
2018-05-12T10:51:25.046Z,24.60
2018-05-12T10:52:28.327Z,24.50
2018-05-12T10:53:31.611Z,24.80
2018-05-12T10:54:34.913Z,24.90
2018-05-12T10:55:38.190Z,25.30
2018-05-12T10:56:42.231Z,25.40
2018-05-12T10:57:44.869Z,25.30
2018-05-12T10:58:48.155Z,25.60
2018-05-12T10:59:51.432Z,25.80
2018-05-12T11:00:53.949Z,25.70
2018-05-12T11:01:56.521Z,25.80
2018-05-12T11:02:58.993Z,26.00
2018-05-12T11:04:01.518Z,26.00
2018-05-12T11:05:04.009Z,26.00
2018-05-12T11:06:07.285Z,26.00
2018-05-12T11:07:09.877Z,26.00
2018-05-12T11:08:13.168Z,26.00
2018-05-12T11:09:16.573Z,25.90
2018-05-12T11:10:19.131Z,25.90
2018-05-12T11:11:22.398Z,25.80
2018-05-12T11:12:25.705Z,25.90
2018-05-12T11:13:29.907Z,25.90
2018-05-12T11:14:33.175Z,25.70
2018-05-12T11:15:35.794Z,25.70
2018-05-12T11:16:38.360Z,25.40
2018-05-12T11:17:40.893Z,25.10
2018-05-12T11:18:43.422Z,24.90
2018-05-12T11:19:45.944Z,24.60
2018-05-12T11:20:49.281Z,24.50
2018-05-12T11:21:51.895Z,24.50
2018-05-12T11:22:55.103Z,24.70
2018-05-12T11:23:58.380Z,24.50
2018-05-12T11:25:01.649Z,24.50
2018-05-12T11:26:04.176Z,24.50
2018-05-12T11:27:07.969Z,24.40
2018-05-12T11:28:10.549Z,24.20
2018-05-12T11:29:13.066Z,24.30
2018-05-12T11:30:15.596Z,24.00
2018-05-12T11:31:18.136Z,23.90
2018-05-12T11:32:20.672Z,23.80
2018-05-12T11:33:23.221Z,23.80
2018-05-12T11:34:25.757Z,23.80
2018-05-12T11:35:28.271Z,23.70
2018-05-12T11:36:30.824Z,23.90
2018-05-12T11:37:33.328Z,24.10
2018-05-12T11:38:35.870Z,24.40
2018-05-12T11:39:38.380Z,24.40
2018-05-12T11:40:40.912Z,24.10
2018-05-12T11:41:43.434Z,24.00
2018-05-12T11:42:46.709Z,24.30
2018-05-12T11:43:49.268Z,24.20
2018-05-12T11:44:52.504Z,24.10
2018-05-12T11:45:55.018Z,24.00
2018-05-12T11:46:57.540Z,24.00
2018-05-12T11:48:00.031Z,23.90
2018-05-12T11:49:02.545Z,23.90
2018-05-12T11:50:05.100Z,23.90
2018-05-12T11:51:07.579Z,23.90
2018-05-12T11:52:10.117Z,23.80
2018-05-12T11:53:12.642Z,23.60
2018-05-12T11:54:15.994Z,23.60
2018-05-12T11:55:18.512Z,23.60
2018-05-12T11:56:21.043Z,23.60
2018-05-12T11:57:23.581Z,23.50
2018-05-12T11:58:26.086Z,23.30
2018-05-12T11:59:28.642Z,23.30
2018-05-12T12:00:31.173Z,23.40
2018-05-12T12:01:34.541Z,23.60
2018-05-12T12:02:37.071Z,23.60
2018-05-12T12:03:39.676Z,23.80
2018-05-12T12:04:42.132Z,23.70
2018-05-12T12:05:44.648Z,23.70
2018-05-12T12:06:47.173Z,23.60
2018-05-12T12:07:49.696Z,23.50
2018-05-12T12:08:52.197Z,23.40
2018-05-12T12:09:54.722Z,23.40
2018-05-12T12:10:58.016Z,23.40
2018-05-12T12:12:01.394Z,23.40
2018-05-12T12:13:04.681Z,23.40
2018-05-12T12:14:07.953Z,23.30
2018-05-12T12:15:10.544Z,23.30
2018-05-12T12:16:13.817Z,23.30
2018-05-12T12:17:16.370Z,23.30
2018-05-12T12:18:18.911Z,23.30
2018-05-12T12:19:21.450Z,23.40
2018-05-12T12:20:25.576Z,23.40
2018-05-12T12:21:28.071Z,23.40
2018-05-12T12:22:30.569Z,23.40
2018-05-12T12:23:33.080Z,23.50
2018-05-12T12:24:35.620Z,23.60
2018-05-12T12:25:38.916Z,23.90
2018-05-12T12:26:42.201Z,24.10
2018-05-12T12:27:44.713Z,24.00
2018-05-12T12:28:48.127Z,24.20
2018-05-12T12:29:50.650Z,24.20
2018-05-12T12:30:53.931Z,24.20
2018-05-12T12:31:56.575Z,24.20
2018-05-12T12:32:59.072Z,24.20
2018-05-12T12:34:01.621Z,24.20
2018-05-12T12:35:04.156Z,24.00
2018-05-12T12:36:06.789Z,24.10
2018-05-12T12:37:10.144Z,24.10
2018-05-12T12:38:12.685Z,24.10
2018-05-12T12:39:15.188Z,24.00
2018-05-12T12:40:17.730Z,23.90
2018-05-12T12:41:20.249Z,23.80
2018-05-12T12:42:22.770Z,23.80
2018-05-12T12:43:25.263Z,23.90
2018-05-12T12:44:27.779Z,23.90
2018-05-12T12:45:31.068Z,24.10
2018-05-12T12:46:34.375Z,24.10
2018-05-12T12:47:36.868Z,24.10
2018-05-12T12:48:39.387Z,24.20
2018-05-12T12:49:42.643Z,24.40
2018-05-12T12:50:45.161Z,24.30
2018-05-12T12:51:48.538Z,24.60
2018-05-12T12:52:51.013Z,24.60
2018-05-12T12:53:54.275Z,25.00
2018-05-12T12:54:56.777Z,25.00
2018-05-12T12:56:00.265Z,25.30
2018-05-12T12:57:03.545Z,25.50
2018-05-12T12:58:06.049Z,25.50
2018-05-12T12:59:08.545Z,25.60
2018-05-12T13:00:11.076Z,25.70
2018-05-12T13:01:13.598Z,25.80
2018-05-12T13:02:16.276Z,25.90
2018-05-12T13:03:18.781Z,25.70
2018-05-12T13:04:21.348Z,25.60
2018-05-12T13:05:23.837Z,25.60
2018-05-12T13:06:27.089Z,25.50
2018-05-12T13:07:29.627Z,25.50
2018-05-12T13:08:32.118Z,25.50
2018-05-12T13:09:34.628Z,25.50
2018-05-12T13:10:37.945Z,25.50
2018-05-12T13:11:40.508Z,25.50
2018-05-12T13:12:42.941Z,25.60
2018-05-12T13:13:45.470Z,25.60
2018-05-12T13:14:47.991Z,25.60
2018-05-12T13:15:51.359Z,25.60
2018-05-12T13:16:53.790Z,25.60
2018-05-12T13:17:56.309Z,25.60
2018-05-12T13:18:59.567Z,25.60
2018-05-12T13:20:02.138Z,25.60
2018-05-12T13:21:05.367Z,25.60
2018-05-12T13:22:08.688Z,25.60
2018-05-12T13:23:11.228Z,25.60
2018-05-12T13:24:14.490Z,25.60
2018-05-12T13:25:17.016Z,25.60
2018-05-12T13:26:19.540Z,25.60
2018-05-12T13:27:22.064Z,25.30
2018-05-12T13:28:24.593Z,25.30
2018-05-12T13:29:27.099Z,25.30
2018-05-12T13:30:29.632Z,25.40